sensor_id;sensor_type;location;lat;lon;timestamp;pressure;altitude;pressure_sealevel;temperature;humidity
35489;BME280;21602;55.670;37.578;2023-10-19T00:02:04;98191.75;;;6.55;93.79
35489;BME280;21602;55.670;37.578;2023-10-19T00:04:30;98194.19;;;6.56;93.57
35489;BME280;21602;55.670;37.578;2023-10-19T00:07:01;98188.88;;;6.56;93.73
35489;BME280;21602;55.670;37.578;2023-10-19T00:09:29;98188.38;;;6.59;93.69
35489;BME280;21602;55.670;37.578;2023-10-19T00:12:02;98184.47;;;6.62;93.85
35489;BME280;21602;55.670;37.578;2023-10-19T00:14:28;98196.34;;;6.59;93.35
35489;BME280;21602;55.670;37.578;2023-10-19T00:16:53;98193.13;;;6.57;93.44
35489;BME280;21602;55.670;37.578;2023-10-19T00:19:25;98200.03;;;6.58;93.53
35489;BME280;21602;55.670;37.578;2023-10-19T00:21:53;98192.09;;;6.58;93.80
35489;BME280;21602;55.670;37.578;2023-10-19T00:24:27;98193.47;;;6.61;93.65
35489;BME280;21602;55.670;37.578;2023-10-19T00:26:53;98191.63;;;6.61;93.44
35489;BME280;21602;55.670;37.578;2023-10-19T00:29:20;98190.03;;;6.60;93.25
35489;BME280;21602;55.670;37.578;2023-10-19T00:31:59;98187.28;;;6.55;93.39
35489;BME280;21602;55.670;37.578;2023-10-19T00:34:25;98183.56;;;6.56;93.63
35489;BME280;21602;55.670;37.578;2023-10-19T00:36:51;98186.69;;;6.53;93.44
35489;BME280;21602;55.670;37.578;2023-10-19T00:39:17;98185.88;;;6.53;93.85
35489;BME280;21602;55.670;37.578;2023-10-19T00:41:49;98181.38;;;6.53;93.86
35489;BME280;21602;55.670;37.578;2023-10-19T00:44:16;98183.56;;;6.56;93.79
35489;BME280;21602;55.670;37.578;2023-10-19T00:47:02;98180.81;;;6.51;93.52
35489;BME280;21602;55.670;37.578;2023-10-19T00:49:37;98182.78;;;6.44;93.95
35489;BME280;21602;55.670;37.578;2023-10-19T00:52:03;98178.19;;;6.39;93.96
35489;BME280;21602;55.670;37.578;2023-10-19T00:54:39;98180.28;;;6.37;94.13
35489;BME280;21602;55.670;37.578;2023-10-19T00:57:05;98183.50;;;6.39;94.18
35489;BME280;21602;55.670;37.578;2023-10-19T00:59:41;98178.44;;;6.38;94.11
35489;BME280;21602;55.670;37.578;2023-10-19T01:02:19;98184.78;;;6.37;94.06
35489;BME280;21602;55.670;37.578;2023-10-19T01:04:54;98189.28;;;6.36;93.92
35489;BME280;21602;55.670;37.578;2023-10-19T01:07:33;98185.59;;;6.37;93.88
35489;BME280;21602;55.670;37.578;2023-10-19T01:10:08;98182.34;;;6.35;93.78
35489;BME280;21602;55.670;37.578;2023-10-19T01:12:35;98194.34;;;6.38;93.95
35489;BME280;21602;55.670;37.578;2023-10-19T01:15:09;98182.22;;;6.42;94.14
35489;BME280;21602;55.670;37.578;2023-10-19T01:17:53;98181.53;;;6.47;94.05
35489;BME280;21602;55.670;37.578;2023-10-19T01:20:26;98180.81;;;6.51;93.59
35489;BME280;21602;55.670;37.578;2023-10-19T01:28:09;98179.78;;;6.52;93.30
35489;BME280;21602;55.670;37.578;2023-10-19T01:30:35;98176.09;;;6.53;93.39
35489;BME280;21602;55.670;37.578;2023-10-19T01:33:02;98179.53;;;6.54;93.24
35489;BME280;21602;55.670;37.578;2023-10-19T01:35:29;98175.03;;;6.54;93.27
35489;BME280;21602;55.670;37.578;2023-10-19T01:38:14;98177.13;;;6.52;93.22
35489;BME280;21602;55.670;37.578;2023-10-19T01:40:40;98184.03;;;6.53;93.38
35489;BME280;21602;55.670;37.578;2023-10-19T01:43:11;98176.66;;;6.55;93.76
35489;BME280;21602;55.670;37.578;2023-10-19T01:45:46;98177.47;;;6.56;93.23
35489;BME280;21602;55.670;37.578;2023-10-19T01:48:12;98175.03;;;6.54;93.20
35489;BME280;21602;55.670;37.578;2023-10-19T01:50:38;98174.22;;;6.54;93.58
35489;BME280;21602;55.670;37.578;2023-10-19T01:53:04;98173.44;;;6.53;93.32
35489;BME280;21602;55.670;37.578;2023-10-19T01:55:38;98174.72;;;6.51;93.39
35489;BME280;21602;55.670;37.578;2023-10-19T01:58:03;98178.88;;;6.47;93.18
35489;BME280;21602;55.670;37.578;2023-10-19T02:00:31;98173.25;;;6.43;93.41
35489;BME280;21602;55.670;37.578;2023-10-19T02:02:57;98171.63;;;6.42;93.44
35489;BME280;21602;55.670;37.578;2023-10-19T02:05:23;98169.44;;;6.39;93.50
35489;BME280;21602;55.670;37.578;2023-10-19T02:07:50;98166.78;;;6.39;93.68
35489;BME280;21602;55.670;37.578;2023-10-19T02:10:16;98176.84;;;6.37;93.69
35489;BME280;21602;55.670;37.578;2023-10-19T02:12:41;98165.19;;;6.38;94.11
35489;BME280;21602;55.670;37.578;2023-10-19T02:15:08;98171.63;;;6.42;93.86
35489;BME280;21602;55.670;37.578;2023-10-19T02:17:33;98172.44;;;6.43;94.00
35489;BME280;21602;55.670;37.578;2023-10-19T02:19:59;98171.13;;;6.45;94.07
35489;BME280;21602;55.670;37.578;2023-10-19T02:22:24;98173.34;;;6.48;94.16
35489;BME280;21602;55.670;37.578;2023-10-19T02:24:50;98172.63;;;6.53;94.19
35489;BME280;21602;55.670;37.578;2023-10-19T02:27:15;98171.91;;;6.57;94.02
35489;BME280;21602;55.670;37.578;2023-10-19T02:29:41;98167.16;;;6.59;93.76
35489;BME280;21602;55.670;37.578;2023-10-19T02:32:07;98173.78;;;6.57;93.61
35489;BME280;21602;55.670;37.578;2023-10-19T02:34:33;98167.66;;;6.56;93.81
35489;BME280;21602;55.670;37.578;2023-10-19T02:37:00;98167.78;;;6.50;93.50
35489;BME280;21602;55.670;37.578;2023-10-19T02:39:26;98174.03;;;6.44;93.49
35489;BME280;21602;55.670;37.578;2023-10-19T02:41:53;98170.03;;;6.41;93.78
35489;BME280;21602;55.670;37.578;2023-10-19T02:44:21;98167.59;;;6.39;93.35
35489;BME280;21602;55.670;37.578;2023-10-19T02:46:51;98180.63;;;6.41;93.42
35489;BME280;21602;55.670;37.578;2023-10-19T02:49:18;98168.41;;;6.40;93.60
35489;BME280;21602;55.670;37.578;2023-10-19T02:51:48;98169.78;;;6.43;93.76
35489;BME280;21602;55.670;37.578;2023-10-19T02:54:14;98169.19;;;6.40;93.26
35489;BME280;21602;55.670;37.578;2023-10-19T02:56:49;98171.75;;;6.35;93.37
35489;BME280;21602;55.670;37.578;2023-10-19T02:59:16;98173.03;;;6.33;93.81
35489;BME280;21602;55.670;37.578;2023-10-19T03:01:44;98166.69;;;6.34;93.80
35489;BME280;21602;55.670;37.578;2023-10-19T03:04:10;98168.09;;;6.36;93.63
35489;BME280;21602;55.670;37.578;2023-10-19T03:06:38;98168.88;;;6.37;93.46
35489;BME280;21602;55.670;37.578;2023-10-19T03:09:05;98158.28;;;6.37;93.59
35489;BME280;21602;55.670;37.578;2023-10-19T03:11:50;98160.34;;;6.35;93.89
35489;BME280;21602;55.670;37.578;2023-10-19T03:14:18;98161.16;;;6.35;94.03
35489;BME280;21602;55.670;37.578;2023-10-19T03:16:43;98168.09;;;6.36;93.97
35489;BME280;21602;55.670;37.578;2023-10-19T03:19:10;98162.78;;;6.36;93.90
35489;BME280;21602;55.670;37.578;2023-10-19T03:21:38;98163.00;;;6.35;94.20
35489;BME280;21602;55.670;37.578;2023-10-19T03:24:09;98168.78;;;6.32;94.28
35489;BME280;21602;55.670;37.578;2023-10-19T03:26:38;98165.78;;;6.28;94.65
35489;BME280;21602;55.670;37.578;2023-10-19T03:29:08;98171.88;;;6.29;94.71
35489;BME280;21602;55.670;37.578;2023-10-19T03:31:38;98175.09;;;6.31;94.77
35489;BME280;21602;55.670;37.578;2023-10-19T03:34:09;98168.78;;;6.32;94.65
35489;BME280;21602;55.670;37.578;2023-10-19T03:36:35;98168.44;;;6.28;94.95
35489;BME280;21602;55.670;37.578;2023-10-19T03:39:02;98168.09;;;6.25;94.93
35489;BME280;21602;55.670;37.578;2023-10-19T03:41:39;98168.56;;;6.22;95.06
35489;BME280;21602;55.670;37.578;2023-10-19T03:44:09;98169.03;;;6.19;95.21
35489;BME280;21602;55.670;37.578;2023-10-19T03:46:44;98174.56;;;6.17;95.10
35489;BME280;21602;55.670;37.578;2023-10-19T03:49:21;98168.44;;;6.16;95.37
35489;BME280;21602;55.670;37.578;2023-10-19T03:51:47;98176.75;;;6.20;95.44
35489;BME280;21602;55.670;37.578;2023-10-19T03:54:32;98168.34;;;6.23;95.44
35489;BME280;21602;55.670;37.578;2023-10-19T03:56:58;98176.03;;;6.25;95.56
35489;BME280;21602;55.670;37.578;2023-10-19T03:59:27;98173.97;;;6.27;95.97
35489;BME280;21602;55.670;37.578;2023-10-19T04:01:58;98171.34;;;6.27;95.20
35489;BME280;21602;55.670;37.578;2023-10-19T04:04:25;98184.91;;;6.30;95.25
35489;BME280;21602;55.670;37.578;2023-10-19T04:06:52;98172.25;;;6.32;95.24
35489;BME280;21602;55.670;37.578;2023-10-19T04:09:23;98175.19;;;6.36;95.14
35489;BME280;21602;55.670;37.578;2023-10-19T04:11:55;98173.69;;;6.40;95.13
35489;BME280;21602;55.670;37.578;2023-10-19T04:14:21;98173.13;;;6.38;94.73
35489;BME280;21602;55.670;37.578;2023-10-19T04:16:47;98173.59;;;6.35;94.68
35489;BME280;21602;55.670;37.578;2023-10-19T04:19:14;98174.75;;;6.39;94.86
35489;BME280;21602;55.670;37.578;2023-10-19T04:21:40;98175.78;;;6.38;94.98
35489;BME280;21602;55.670;37.578;2023-10-19T04:24:09;98178.69;;;6.36;95.21
35489;BME280;21602;55.670;37.578;2023-10-19T04:26:35;98181.91;;;6.38;95.21
35489;BME280;21602;55.670;37.578;2023-10-19T04:29:05;98190.19;;;6.42;95.47
35489;BME280;21602;55.670;37.578;2023-10-19T04:31:42;98184.41;;;6.45;95.17
35489;BME280;21602;55.670;37.578;2023-10-19T04:34:20;98178.53;;;6.43;94.79
35489;BME280;21602;55.670;37.578;2023-10-19T04:36:49;98184.66;;;6.44;94.78
35489;BME280;21602;55.670;37.578;2023-10-19T04:39:16;98179.09;;;6.45;94.88
35489;BME280;21602;55.670;37.578;2023-10-19T04:41:45;98182.56;;;6.46;94.96
35489;BME280;21602;55.670;37.578;2023-10-19T04:44:10;98179.34;;;6.44;94.78
35489;BME280;21602;55.670;37.578;2023-10-19T04:46:36;98188.09;;;6.44;95.21
35489;BME280;21602;55.670;37.578;2023-10-19T04:49:02;98178.63;;;6.48;95.20
35489;BME280;21602;55.670;37.578;2023-10-19T04:51:29;98184.84;;;6.54;94.99
35489;BME280;21602;55.670;37.578;2023-10-19T04:53:54;98182.78;;;6.56;94.86
35489;BME280;21602;55.670;37.578;2023-10-19T04:56:20;98186.22;;;6.56;94.98
35489;BME280;21602;55.670;37.578;2023-10-19T04:58:46;98184.94;;;6.59;94.53
35489;BME280;21602;55.670;37.578;2023-10-19T05:01:12;98186.22;;;6.56;94.80
35489;BME280;21602;55.670;37.578;2023-10-19T05:03:38;98187.28;;;6.55;94.49
35489;BME280;21602;55.670;37.578;2023-10-19T05:06:04;98184.03;;;6.53;95.12
35489;BME280;21602;55.670;37.578;2023-10-19T05:08:30;98184.84;;;6.54;94.75
35489;BME280;21602;55.670;37.578;2023-10-19T05:10:58;98190.94;;;6.54;94.92
35489;BME280;21602;55.670;37.578;2023-10-19T05:13:27;98192.09;;;6.58;94.76
35489;BME280;21602;55.670;37.578;2023-10-19T05:15:53;98185.97;;;6.58;94.54
35489;BME280;21602;55.670;37.578;2023-10-19T05:18:20;98188.38;;;6.59;94.73
35489;BME280;21602;55.670;37.578;2023-10-19T05:20:45;98185.53;;;6.61;94.50
35489;BME280;21602;55.670;37.578;2023-10-19T05:23:11;98189.22;;;6.60;94.61
35489;BME280;21602;55.670;37.578;2023-10-19T05:25:38;98188.97;;;6.61;94.70
35489;BME280;21602;55.670;37.578;2023-10-19T05:28:07;98191.97;;;6.65;94.55
35489;BME280;21602;55.670;37.578;2023-10-19T05:30:34;98195.97;;;6.67;94.40
35489;BME280;21602;55.670;37.578;2023-10-19T05:33:00;98197.81;;;6.67;94.16
35489;BME280;21602;55.670;37.578;2023-10-19T05:35:29;98195.97;;;6.67;94.21
35489;BME280;21602;55.670;37.578;2023-10-19T05:37:56;98199.09;;;6.64;94.04
35489;BME280;21602;55.670;37.578;2023-10-19T05:40:24;98199.44;;;6.68;94.39
35489;BME280;21602;55.670;37.578;2023-10-19T05:42:55;98203.22;;;6.72;94.59
35489;BME280;21602;55.670;37.578;2023-10-19T05:45:21;98197.78;;;6.79;94.31
35489;BME280;21602;55.670;37.578;2023-10-19T05:47:47;98202.84;;;6.80;94.23
35489;BME280;21602;55.670;37.578;2023-10-19T05:50:12;98200.53;;;6.84;94.03
35489;BME280;21602;55.670;37.578;2023-10-19T05:52:40;98195.78;;;6.86;94.18
35489;BME280;21602;55.670;37.578;2023-10-19T05:55:06;98205.34;;;6.87;93.89
35489;BME280;21602;55.670;37.578;2023-10-19T05:57:32;98209.06;;;6.86;93.97
35489;BME280;21602;55.670;37.578;2023-10-19T05:59:57;98198.53;;;6.91;94.14
35489;BME280;21602;55.670;37.578;2023-10-19T06:02:23;98200.72;;;6.94;94.24
35489;BME280;21602;55.670;37.578;2023-10-19T06:04:49;98203.69;;;6.98;93.98
35489;BME280;21602;55.670;37.578;2023-10-19T06:07:14;98196.88;;;7.02;93.69
35489;BME280;21602;55.670;37.578;2023-10-19T06:09:40;98200.09;;;7.04;93.32
35489;BME280;21602;55.670;37.578;2023-10-19T06:12:05;98202.75;;;7.04;93.42
35489;BME280;21602;55.670;37.578;2023-10-19T06:14:34;98202.34;;;7.12;93.63
35489;BME280;21602;55.670;37.578;2023-10-19T06:17:00;98197.97;;;7.17;93.32
35489;BME280;21602;55.670;37.578;2023-10-19T06:19:26;98203.91;;;7.25;92.68
35489;BME280;21602;55.670;37.578;2023-10-19T06:21:52;98205.50;;;7.26;92.43
35489;BME280;21602;55.670;37.578;2023-10-19T06:24:18;98203.19;;;7.29;92.37
35489;BME280;21602;55.670;37.578;2023-10-19T06:26:44;98207.69;;;7.29;91.95
35489;BME280;21602;55.670;37.578;2023-10-19T06:29:09;98214.84;;;7.28;91.71
35489;BME280;21602;55.670;37.578;2023-10-19T06:31:35;98210.19;;;7.35;92.04
35489;BME280;21602;55.670;37.578;2023-10-19T06:34:01;98211.09;;;7.41;91.92
35489;BME280;21602;55.670;37.578;2023-10-19T06:36:28;98213.84;;;7.46;91.60
35489;BME280;21602;55.670;37.578;2023-10-19T06:38:54;98206.75;;;7.52;91.59
35489;BME280;21602;55.670;37.578;2023-10-19T06:41:20;98211.56;;;7.55;90.75
35489;BME280;21602;55.670;37.578;2023-10-19T06:43:46;98206.03;;;7.56;90.25
35489;BME280;21602;55.670;37.578;2023-10-19T06:46:12;98208.44;;;7.58;90.18
35489;BME280;21602;55.670;37.578;2023-10-19T06:48:38;98203.44;;;7.61;90.14
35489;BME280;21602;55.670;37.578;2023-10-19T06:51:03;98205.63;;;7.64;89.47
35489;BME280;21602;55.670;37.578;2023-10-19T06:53:30;98209.63;;;7.67;89.31
35489;BME280;21602;55.670;37.578;2023-10-19T06:55:57;98208.91;;;7.72;88.84
35489;BME280;21602;55.670;37.578;2023-10-19T06:58:23;98204.72;;;7.76;88.27
35489;BME280;21602;55.670;37.578;2023-10-19T07:00:52;98204.47;;;7.77;88.36
35489;BME280;21602;55.670;37.578;2023-10-19T07:03:25;98206.31;;;7.77;88.76
35489;BME280;21602;55.670;37.578;2023-10-19T07:05:53;98208.50;;;7.80;88.88
35489;BME280;21602;55.670;37.578;2023-10-19T07:08:19;98214.94;;;7.84;88.59
35489;BME280;21602;55.670;37.578;2023-10-19T07:10:46;98219.22;;;7.85;88.39
35489;BME280;21602;55.670;37.578;2023-10-19T07:13:12;98221.13;;;7.89;88.55
35489;BME280;21602;55.670;37.578;2023-10-19T07:15:37;98217.16;;;7.92;87.75
35489;BME280;21602;55.670;37.578;2023-10-19T07:18:09;98220.63;;;7.92;87.73
35489;BME280;21602;55.670;37.578;2023-10-19T07:20:35;98228.13;;;7.95;88.12
35489;BME280;21602;55.670;37.578;2023-10-19T07:23:04;98224.75;;;8.00;88.64
35489;BME280;21602;55.670;37.578;2023-10-19T07:25:44;98220.56;;;8.04;88.30
35489;BME280;21602;55.670;37.578;2023-10-19T07:28:10;98224.75;;;8.00;88.36
35489;BME280;21602;55.670;37.578;2023-10-19T07:30:38;98222.63;;;8.02;88.27
35489;BME280;21602;55.670;37.578;2023-10-19T07:33:03;98225.88;;;8.04;88.28
35489;BME280;21602;55.670;37.578;2023-10-19T07:35:33;98228.59;;;8.09;88.15
35489;BME280;21602;55.670;37.578;2023-10-19T07:37:59;98225.47;;;8.12;87.88
35489;BME280;21602;55.670;37.578;2023-10-19T07:40:25;98231.31;;;8.14;87.98
35489;BME280;21602;55.670;37.578;2023-10-19T07:42:51;98224.22;;;8.20;87.65
35489;BME280;21602;55.670;37.578;2023-10-19T07:45:18;98221.41;;;8.27;87.58
35489;BME280;21602;55.670;37.578;2023-10-19T07:47:44;98217.44;;;8.29;87.43
35489;BME280;21602;55.670;37.578;2023-10-19T07:50:11;98227.81;;;8.31;87.35
35489;BME280;21602;55.670;37.578;2023-10-19T07:52:43;98228.88;;;8.30;87.19
35489;BME280;21602;55.670;37.578;2023-10-19T07:55:12;98227.25;;;8.29;87.11
35489;BME280;21602;55.670;37.578;2023-10-19T07:57:38;98229.91;;;8.29;87.08
35489;BME280;21602;55.670;37.578;2023-10-19T08:00:06;98222.69;;;8.24;86.30
35489;BME280;21602;55.670;37.578;2023-10-19T08:02:36;98231.13;;;8.21;86.73
35489;BME280;21602;55.670;37.578;2023-10-19T08:05:03;98230.25;;;8.15;86.41
35489;BME280;21602;55.670;37.578;2023-10-19T08:07:29;98237.13;;;8.11;86.85
35489;BME280;21602;55.670;37.578;2023-10-19T08:09:55;98239.22;;;8.09;86.70
35489;BME280;21602;55.670;37.578;2023-10-19T08:12:24;98237.03;;;8.06;87.35
35489;BME280;21602;55.670;37.578;2023-10-19T08:14:52;98233.59;;;8.06;87.61
35489;BME280;21602;55.670;37.578;2023-10-19T08:17:17;98231.66;;;8.01;88.20
35489;BME280;21602;55.670;37.578;2023-10-19T08:19:43;98242.28;;;8.01;87.81
35489;BME280;21602;55.670;37.578;2023-10-19T08:22:08;98236.19;;;8.01;88.05
35489;BME280;21602;55.670;37.578;2023-10-19T08:24:35;98239.88;;;8.00;87.32
35489;BME280;21602;55.670;37.578;2023-10-19T08:27:01;98239.09;;;7.99;87.68
35489;BME280;21602;55.670;37.578;2023-10-19T08:29:26;98241.00;;;8.04;88.03
35489;BME280;21602;55.670;37.578;2023-10-19T08:31:52;98242.13;;;8.08;87.88
35489;BME280;21602;55.670;37.578;2023-10-19T08:34:17;98248.06;;;8.15;88.43
35489;BME280;21602;55.670;37.578;2023-10-19T08:36:44;98238.88;;;8.23;87.64
35489;BME280;21602;55.670;37.578;2023-10-19T08:39:10;98239.22;;;8.26;87.62
35489;BME280;21602;55.670;37.578;2023-10-19T08:41:39;98241.78;;;8.38;87.89
35489;BME280;21602;55.670;37.578;2023-10-19T08:44:06;98243.84;;;8.36;87.02
35489;BME280;21602;55.670;37.578;2023-10-19T08:46:42;98242.56;;;8.38;87.22
35489;BME280;21602;55.670;37.578;2023-10-19T08:49:11;98241.34;;;8.46;87.20
35489;BME280;21602;55.670;37.578;2023-10-19T08:51:38;98245.38;;;8.49;86.78
35489;BME280;21602;55.670;37.578;2023-10-19T08:54:07;98241.84;;;8.43;87.28
35489;BME280;21602;55.670;37.578;2023-10-19T08:56:36;98247.16;;;8.43;86.63
35489;BME280;21602;55.670;37.578;2023-10-19T08:59:01;98250.81;;;8.37;86.25
35489;BME280;21602;55.670;37.578;2023-10-19T09:01:27;98250.44;;;8.33;86.09
35489;BME280;21602;55.670;37.578;2023-10-19T09:04:00;98259.81;;;8.36;86.38
35489;BME280;21602;55.670;37.578;2023-10-19T09:06:26;98258.19;;;8.35;86.25
35489;BME280;21602;55.670;37.578;2023-10-19T09:08:56;98252.31;;;8.33;86.22
35489;BME280;21602;55.670;37.578;2023-10-19T09:11:23;98252.31;;;8.33;86.38
35489;BME280;21602;55.670;37.578;2023-10-19T09:13:50;98257.88;;;8.31;86.40
35489;BME280;21602;55.670;37.578;2023-10-19T09:16:18;98255.31;;;8.36;86.44
35489;BME280;21602;55.670;37.578;2023-10-19T09:18:43;98261.00;;;8.45;86.34
35489;BME280;21602;55.670;37.578;2023-10-19T09:21:10;98265.09;;;8.53;86.46
35489;BME280;21602;55.670;37.578;2023-10-19T09:23:46;98261.69;;;8.57;86.34
35489;BME280;21602;55.670;37.578;2023-10-19T09:26:12;98269.19;;;8.60;86.11
35489;BME280;21602;55.670;37.578;2023-10-19T09:28:38;98263.31;;;8.58;85.31
35489;BME280;21602;55.670;37.578;2023-10-19T09:31:05;98260.09;;;8.56;85.58
35489;BME280;21602;55.670;37.578;2023-10-19T09:33:34;98259.09;;;8.62;86.12
35489;BME280;21602;55.670;37.578;2023-10-19T09:36:03;98257.06;;;8.69;85.41
35489;BME280;21602;55.670;37.578;2023-10-19T09:41:13;98261.63;;;8.96;84.29
35489;BME280;21602;55.670;37.578;2023-10-19T09:46:09;98257.63;;;8.93;83.41
35489;BME280;21602;55.670;37.578;2023-10-19T09:48:55;98270.63;;;8.90;83.85
35489;BME280;21602;55.670;37.578;2023-10-19T09:51:20;98256.31;;;8.96;83.46
35489;BME280;21602;55.670;37.578;2023-10-19T09:53:57;98268.00;;;8.95;83.19
35489;BME280;21602;55.670;37.578;2023-10-19T09:56:46;98264.81;;;8.93;83.17
35489;BME280;21602;55.670;37.578;2023-10-19T09:59:22;98261.25;;;8.87;82.39
35489;BME280;21602;55.670;37.578;2023-10-19T10:04:35;98266.09;;;8.68;83.02
35489;BME280;21602;55.670;37.578;2023-10-19T10:07:01;98268.34;;;8.55;83.61
35489;BME280;21602;55.670;37.578;2023-10-19T10:09:26;98269.28;;;8.49;83.97
35489;BME280;21602;55.670;37.578;2023-10-19T10:11:52;98269.56;;;8.47;84.11
35489;BME280;21602;55.670;37.578;2023-10-19T10:14:22;98263.81;;;8.55;84.50
35489;BME280;21602;55.670;37.578;2023-10-19T10:16:59;98271.34;;;8.63;83.47
35489;BME280;21602;55.670;37.578;2023-10-19T10:19:26;98267.25;;;8.78;82.57
35489;BME280;21602;55.670;37.578;2023-10-19T10:22:04;98267.31;;;8.83;82.44
35489;BME280;21602;55.670;37.578;2023-10-19T10:24:43;98267.16;;;8.89;82.33
35489;BME280;21602;55.670;37.578;2023-10-19T10:27:09;98265.28;;;8.90;82.25
35489;BME280;21602;55.670;37.578;2023-10-19T10:30:00;98271.72;;;8.94;81.50
35489;BME280;21602;55.670;37.578;2023-10-19T10:33:07;98268.06;;;9.00;81.21
35489;BME280;21602;55.670;37.578;2023-10-19T10:37:58;98271.41;;;8.90;80.90
35489;BME280;21602;55.670;37.578;2023-10-19T10:40:23;98266.28;;;8.84;80.84
35489;BME280;21602;55.670;37.578;2023-10-19T10:43:04;98266.41;;;8.72;80.50
35489;BME280;21602;55.670;37.578;2023-10-19T10:45:29;98266.03;;;8.63;81.31
35489;BME280;21602;55.670;37.578;2023-10-19T10:47:56;98266.22;;;8.57;82.55
35489;BME280;21602;55.670;37.578;2023-10-19T10:50:21;98271.00;;;8.55;82.79
35489;BME280;21602;55.670;37.578;2023-10-19T10:52:47;98270.16;;;8.54;82.72
35489;BME280;21602;55.670;37.578;2023-10-19T10:55:13;98268.56;;;8.53;83.75
35489;BME280;21602;55.670;37.578;2023-10-19T10:57:40;98278.34;;;8.48;83.23
35489;BME280;21602;55.670;37.578;2023-10-19T11:00:06;98265.03;;;8.48;84.08
35489;BME280;21602;55.670;37.578;2023-10-19T11:02:36;98268.00;;;8.51;84.20
35489;BME280;21602;55.670;37.578;2023-10-19T11:05:08;98272.81;;;8.54;84.68
35489;BME280;21602;55.670;37.578;2023-10-19T11:07:37;98269.13;;;8.55;84.49
35489;BME280;21602;55.670;37.578;2023-10-19T11:10:03;98276.06;;;8.56;85.65
35489;BME280;21602;55.670;37.578;2023-10-19T11:12:29;98271.78;;;8.55;85.07
35489;BME280;21602;55.670;37.578;2023-10-19T11:14:55;98272.69;;;8.44;84.51
35489;BME280;21602;55.670;37.578;2023-10-19T11:17:21;98273.00;;;8.31;84.57
35489;BME280;21602;55.670;37.578;2023-10-19T11:19:54;98276.59;;;8.19;85.75
35489;BME280;21602;55.670;37.578;2023-10-19T11:22:21;98273.22;;;8.07;86.55
35489;BME280;21602;55.670;37.578;2023-10-19T11:24:47;98272.91;;;7.87;87.21
35489;BME280;21602;55.670;37.578;2023-10-19T11:27:21;98270.66;;;7.79;87.96
35489;BME280;21602;55.670;37.578;2023-10-19T11:29:55;98281.53;;;7.77;88.53
35489;BME280;21602;55.670;37.578;2023-10-19T11:32:21;98274.34;;;7.78;88.56
35489;BME280;21602;55.670;37.578;2023-10-19T11:34:47;98277.66;;;7.85;88.25
35489;BME280;21602;55.670;37.578;2023-10-19T11:37:16;98275.09;;;7.90;88.60
35489;BME280;21602;55.670;37.578;2023-10-19T11:39:41;98283.13;;;7.95;88.62
35489;BME280;21602;55.670;37.578;2023-10-19T11:42:07;98275.50;;;7.99;88.56
35489;BME280;21602;55.670;37.578;2023-10-19T11:44:33;98277.34;;;7.98;88.53
35489;BME280;21602;55.670;37.578;2023-10-19T11:46:58;98280.00;;;7.98;87.40
35489;BME280;21602;55.670;37.578;2023-10-19T11:49:26;98278.28;;;7.92;86.99
35489;BME280;21602;55.670;37.578;2023-10-19T11:52:03;98283.84;;;7.90;87.48
35489;BME280;21602;55.670;37.578;2023-10-19T11:54:29;98278.94;;;7.82;87.52
35489;BME280;21602;55.670;37.578;2023-10-19T11:56:54;98276.53;;;7.81;87.66
35489;BME280;21602;55.670;37.578;2023-10-19T11:59:20;98273.63;;;7.82;88.04
35489;BME280;21602;55.670;37.578;2023-10-19T12:01:46;98274.50;;;7.88;87.99
35489;BME280;21602;55.670;37.578;2023-10-19T12:04:13;98275.16;;;7.95;88.33
35489;BME280;21602;55.670;37.578;2023-10-19T12:06:39;98271.59;;;8.06;87.90
35489;BME280;21602;55.670;37.578;2023-10-19T12:09:04;98277.06;;;8.16;88.14
35489;BME280;21602;55.670;37.578;2023-10-19T12:11:43;98276.72;;;8.30;87.42
35489;BME280;21602;55.670;37.578;2023-10-19T12:14:09;98276.66;;;8.41;87.04
35489;BME280;21602;55.670;37.578;2023-10-19T12:16:40;98278.16;;;8.54;86.74
35489;BME280;21602;55.670;37.578;2023-10-19T12:19:08;98276.94;;;8.62;85.11
35489;BME280;21602;55.670;37.578;2023-10-19T12:21:34;98277.56;;;8.69;84.63
35489;BME280;21602;55.670;37.578;2023-10-19T12:24:03;98285.84;;;8.72;84.58
35489;BME280;21602;55.670;37.578;2023-10-19T12:26:30;98285.09;;;8.77;84.29
35489;BME280;21602;55.670;37.578;2023-10-19T12:28:55;98282.25;;;8.84;83.49
35489;BME280;21602;55.670;37.578;2023-10-19T12:31:21;98283.38;;;8.88;82.72
35489;BME280;21602;55.670;37.578;2023-10-19T12:33:48;98288.19;;;8.91;82.24
35489;BME280;21602;55.670;37.578;2023-10-19T12:36:14;98286.09;;;8.93;82.52
35489;BME280;21602;55.670;37.578;2023-10-19T12:38:59;98286.25;;;8.86;81.60
35489;BME280;21602;55.670;37.578;2023-10-19T12:41:25;98285.41;;;8.81;82.05
35489;BME280;21602;55.670;37.578;2023-10-19T12:43:51;98278.22;;;8.81;83.26
35489;BME280;21602;55.670;37.578;2023-10-19T12:46:17;98286.22;;;8.81;84.22
35489;BME280;21602;55.670;37.578;2023-10-19T12:48:48;98287.22;;;8.75;83.92
35489;BME280;21602;55.670;37.578;2023-10-19T12:51:14;98291.41;;;8.71;84.54
35489;BME280;21602;55.670;37.578;2023-10-19T12:53:40;98281.50;;;8.66;85.42
35489;BME280;21602;55.670;37.578;2023-10-19T12:56:06;98278.53;;;8.63;86.03
35489;BME280;21602;55.670;37.578;2023-10-19T12:58:33;98282.25;;;8.62;86.16
35489;BME280;21602;55.670;37.578;2023-10-19T13:00:58;98287.03;;;8.60;86.06
35489;BME280;21602;55.670;37.578;2023-10-19T13:03:24;98282.97;;;8.57;85.80
35489;BME280;21602;55.670;37.578;2023-10-19T13:05:57;98277.34;;;8.54;86.23
35489;BME280;21602;55.670;37.578;2023-10-19T13:08:23;98282.66;;;8.54;86.40
35489;BME280;21602;55.670;37.578;2023-10-19T13:10:52;98285.25;;;8.49;86.31
35489;BME280;21602;55.670;37.578;2023-10-19T13:13:18;98285.25;;;8.49;86.58
35489;BME280;21602;55.670;37.578;2023-10-19T13:15:53;98296.69;;;8.49;86.53
35489;BME280;21602;55.670;37.578;2023-10-19T13:18:19;98287.13;;;8.48;86.86
35489;BME280;21602;55.670;37.578;2023-10-19T13:20:47;98296.97;;;8.48;86.90
35489;BME280;21602;55.670;37.578;2023-10-19T13:23:14;98287.13;;;8.48;87.41